Flight Track Log - Related Links

Times and Time Zones

All times are in EDT time to prevent confusion due to time zone crossing. See the N608EB flight status page for this flight to view local times or setup timezone preferences in your user account.

Time Position Orientation Groundspeed Altitude Reporting Facility
EDT Latitude Longitude Course Direction KTS MPH feet Rate Location/Type
Thu 06:53:39 PM 28.2667 -81.4167 123° Southeast 85 98 700  Level Orlando TRACON
Thu 06:53:51 PM 28.2667 -81.4167 123° Southeast 91 105 900 583 Climbing Orlando TRACON
Thu 06:54:51 PM 28.2500 -81.4000 139° Southeast 103 119 1,400 500 Climbing Orlando TRACON
Thu 06:55:51 PM 28.2333 -81.3667 120° Southeast 114 131 1,900 446 Climbing Orlando TRACON
Thu 06:56:52 PM 28.2167 -81.3333 120° Southeast 134 154 2,300 595 Climbing Orlando TRACON
Thu 06:57:52 PM 28.2000 -81.3000 120° Southeast 102 117 3,100 737 Climbing Orlando TRACON
Thu 06:58:46 PM 28.2000 -81.2667 90° East 102 117 3,700 700 Climbing Orlando TRACON
Thu 06:59:00 PM 28.1494 -81.1989 123° Southeast  Level FlightAware Approximate
Thu 06:59:52 PM 28.2000 -81.2333 90° East 101 116 4,500  Level Orlando TRACON
Thu 07:00:52 PM 28.1833 -81.2167 139° Southeast 97 112 5,100 595 Climbing Orlando TRACON
Thu 07:01:53 PM 28.1833 -81.1833 90° East 102 117 5,700 397 Climbing Orlando TRACON
Thu 07:02:53 PM 28.1833 -81.1500 90° East 127 146 5,900 95 Climbing Orlando TRACON
Thu 07:03:59 PM 28.1650 -81.1003 113° Southeast 136 157 5,900  Level Miami Center
Thu 07:04:59 PM 28.1519 -81.0481 106° East 145 167 5,900  Level Miami Center
Thu 07:05:59 PM 28.1236 -81.0142 133° Southeast 152 175 5,900  Level Miami Center
Thu 07:06:59 PM 28.0933 -80.9825 137° Southeast 152 175 5,900  Level Miami Center
Thu 07:07:59 PM 28.0650 -80.9531 137° Southeast 152 175 5,900  Level Miami Center
Thu 07:08:59 PM 28.0325 -80.9214 139° Southeast 158 182 5,900  Level Miami Center
Thu 07:09:59 PM 27.9978 -80.8872 139° Southeast 158 182 5,900  Level Miami Center
Thu 07:10:59 PM 27.9675 -80.8533 135° Southeast 158 182 5,900  Level Miami Center
Thu 07:11:59 PM 27.9369 -80.8239 140° Southeast 158 182 5,900  Level Miami Center
Thu 07:12:59 PM 27.8981 -80.8039 156° South 147 169 5,900  Level Miami Center
Thu 07:13:59 PM 27.8564 -80.7953 170° South 147 169 5,900  Level Miami Center
Thu 07:14:59 PM 27.8125 -80.7939 178° South 159 183 5,900 -250 Level Miami Center
Thu 07:15:59 PM 27.7731 -80.7900 175° South 159 183 5,400 -700 Descending Miami Center
Thu 07:16:59 PM 27.7253 -80.7839 174° South 159 183 4,500 -750 Descending Miami Center
Thu 07:17:59 PM 27.6817 -80.7775 173° South 159 183 3,900 -350 Descending Miami Center
Thu 07:18:59 PM 27.6381 -80.7692 170° South 159 183 3,800 -50 Descending Miami Center
Thu 07:19:59 PM 27.6028 -80.7631 171° South 159 183 3,800  Level Miami Center
Thu 07:20:59 PM 27.5633 -80.7547 169° South 154 177 3,800  Level Miami Center
Thu 07:21:59 PM 27.5217 -80.7442 167° South 154 177 3,800  Level Miami Center
Thu 07:22:59 PM 27.4781 -80.7378 173° South 154 177 3,800  Level Miami Center
Thu 07:23:59 PM 27.4386 -80.7294 169° South 154 177 3,800  Level Miami Center
Thu 07:24:59 PM 27.3992 -80.7211 169° South 149 171 3,800  Level Miami Center
Thu 07:25:59 PM 27.3619 -80.7131 169° South 149 171 3,800  Level Miami Center
Thu 07:26:59 PM 27.3203 -80.7044 170° South 149 171 3,800  Level Miami Center
Thu 07:27:59 PM 27.2767 -80.6983 173° South 149 171 3,800  Level Miami Center
Thu 07:28:59 PM 27.2350 -80.6900 170° South 149 171 3,800  Level Miami Center
Thu 07:29:59 PM 27.1956 -80.6842 173° South 149 171 3,800  Level Miami Center
Thu 07:30:59 PM 27.1581 -80.6806 175° South 149 171 3,800  Level Miami Center
Thu 07:31:59 PM 27.1144 -80.6744 173° South 154 177 3,800  Level Miami Center
Thu 07:32:59 PM 27.0728 -80.6661 170° South 154 177 3,800  Level Miami Center
Thu 07:33:59 PM 27.0336 -80.6531 163° South 154 177 3,800  Level Miami Center
Thu 07:34:59 PM 26.9983 -80.6403 162° South 149 171 3,800  Level Miami Center
Thu 07:35:59 PM 26.9592 -80.6250 161° South 144 166 3,800  Level Miami Center
Thu 07:36:59 PM 26.9158 -80.6072 160° South 149 171 3,800 -300 Level Miami Center
Thu 07:37:59 PM 26.8764 -80.5944 164° South 149 171 3,200 -500 Descending Miami Center
Thu 07:38:59 PM 26.8369 -80.5814 164° South 149 171 2,800 -400 Descending Miami Center
Thu 07:40:00 PM 26.8170 -80.5430 120° Southeast  Level FlightAware Approximate
Thu 07:47:00 PM 26.7304 -80.2528 110° East  Level Estimated
Thu 07:48:00 PM 26.7068 -80.2180 127° Southeast  Level FlightAware Approximate
Thu 07:49:00 PM 26.6986 -80.1753 101° East  Level Estimated
Thu 07:50:00 PM 26.6845 -80.1346 111° Southeast  Level FlightAware Approximate
Thu 07:51:00 PM 26.6703 -80.0939 111° Southeast  Level FlightAware Approximate
Thu 07:52:00 PM 26.6832 -80.0956 111° Southeast  Level Estimated
Thu 07:53:00 PM 26.6832 -80.0956 146° Southeast  Level Estimated
Thu 07:54:00 PM 26.6832 -80.0956 101° East  Level Estimated
Thu 07:55:00 PM 26.6832 -80.0956 146° Southeast  Level Estimated
Thu 07:56:00 PM 26.6832 -80.0956 146° Southeast  Level Estimated
Thu 07:57:00 PM 26.6832 -80.0956 101° East  Level Estimated
Thu 07:58:00 PM 26.6832 -80.0956 146° Southeast  Level Estimated
Thu 07:59:00 PM 26.6832 -80.0956 146° Southeast  Level Estimated
Thu 08:00:00 PM 26.6832 -80.0956 101° East  Level Estimated
Thu 08:01:00 PM 26.6832 -80.0956 146° Southeast  Level Estimated

Login

Don't have an account? Register now (free) for customized features, flight alerts, and more!